createdAt,value
2023-11-25T00:02:40.720Z,0.50
2023-11-25T00:05:43.164Z,0.90
2023-11-25T00:08:45.433Z,1.90
2023-11-25T00:11:47.799Z,0.77
2023-11-25T00:14:50.872Z,0.38
2023-11-25T00:17:56.485Z,1.02
2023-11-25T00:20:58.698Z,2.33
2023-11-25T00:24:00.963Z,0.30
2023-11-25T00:27:03.360Z,0.15
2023-11-25T00:30:07.149Z,0.40
2023-11-25T00:33:10.157Z,1.77
2023-11-25T00:36:12.722Z,2.17
2023-11-25T00:39:16.469Z,1.45
2023-11-25T00:42:22.286Z,0.60
2023-11-25T00:45:26.559Z,0.93
2023-11-25T00:48:28.833Z,1.17
2023-11-25T00:51:30.875Z,1.20
2023-11-25T00:54:34.918Z,4.80
2023-11-25T00:57:37.327Z,0.88
2023-11-25T01:00:39.300Z,1.38
2023-11-25T01:03:41.733Z,0.85
2023-11-25T01:06:48.306Z,1.10
2023-11-25T01:09:50.598Z,1.60
2023-11-25T01:12:52.551Z,0.93
2023-11-25T01:15:55.507Z,1.52
2023-11-25T01:18:57.801Z,0.57
2023-11-25T01:22:00.842Z,1.90
2023-11-25T01:25:02.915Z,1.05
2023-11-25T01:28:05.472Z,1.52
2023-11-25T01:31:07.929Z,1.05
2023-11-25T01:34:10.344Z,0.90
2023-11-25T01:37:16.630Z,2.38
2023-11-25T01:40:18.952Z,0.63
2023-11-25T01:43:24.741Z,1.47
2023-11-25T01:46:44.336Z,1.17
2023-11-25T01:49:47.315Z,1.50
2023-11-25T01:52:51.322Z,1.63
2023-11-25T01:55:55.148Z,1.25
2023-11-25T01:58:59.640Z,2.88
2023-11-25T02:02:02.290Z,1.85
2023-11-25T02:05:05.027Z,2.92
2023-11-25T02:08:08.455Z,3.58
2023-11-25T02:11:10.732Z,2.50
2023-11-25T02:14:13.264Z,0.87
2023-11-25T02:17:16.030Z,1.95
2023-11-25T02:20:37.273Z,1.10
2023-11-25T02:23:40.220Z,0.53
2023-11-25T02:26:42.530Z,2.92
2023-11-25T02:29:45.043Z,1.98
2023-11-25T02:32:47.351Z,0.57
2023-11-25T02:35:51.091Z,1.10
2023-11-25T02:38:53.179Z,1.27
2023-11-25T02:41:55.489Z,0.25
2023-11-25T02:44:57.755Z,0.63
2023-11-25T02:48:00.574Z,1.38
2023-11-25T02:51:04.161Z,1.40
2023-11-25T02:54:09.291Z,1.57
2023-11-25T02:57:13.174Z,3.58
2023-11-25T03:00:37.180Z,0.50
2023-11-25T03:03:43.674Z,0.70
2023-11-25T03:06:46.852Z,1.20
2023-11-25T03:09:49.310Z,0.75
2023-11-25T03:12:52.338Z,0.28
2023-11-25T03:15:55.929Z,0.70
2023-11-25T03:18:58.480Z,0.40
2023-11-25T03:22:01.720Z,0.38
2023-11-25T03:25:06.294Z,1.37
2023-11-25T03:28:11.983Z,0.65
2023-11-25T03:31:14.647Z,1.55
2023-11-25T03:34:17.399Z,1.05
2023-11-25T03:37:20.320Z,0.70
2023-11-25T03:40:23.341Z,0.40
2023-11-25T03:43:25.822Z,0.70
2023-11-25T03:46:31.049Z,1.90
2023-11-25T03:49:35.952Z,0.40
2023-11-25T03:52:42.086Z,0.30
2023-11-25T03:55:45.465Z,2.13
2023-11-25T03:58:49.562Z,2.40
2023-11-25T04:01:52.197Z,0.20
2023-11-25T04:04:54.313Z,5.82
2023-11-25T04:07:56.653Z,0.20
2023-11-25T04:10:59.006Z,0.68
2023-11-25T04:14:01.495Z,0.50
2023-11-25T04:17:04.670Z,0.97
2023-11-25T04:20:14.370Z,0.80
2023-11-25T04:23:16.561Z,4.70
2023-11-25T04:26:21.133Z,0.63
2023-11-25T04:29:23.367Z,8.63
2023-11-25T04:32:26.301Z,0.45
2023-11-25T04:35:28.588Z,1.20
2023-11-25T04:38:31.249Z,0.57
2023-11-25T04:41:33.535Z,1.80
2023-11-25T04:44:35.757Z,0.47
2023-11-25T04:47:38.284Z,1.10
2023-11-25T04:50:41.590Z,3.17
2023-11-25T04:53:45.155Z,0.93
2023-11-25T04:56:47.965Z,0.67
2023-11-25T04:59:49.949Z,2.00
2023-11-25T05:02:52.864Z,1.42
2023-11-25T05:05:54.956Z,1.60
2023-11-25T05:08:57.274Z,11.68
2023-11-25T05:11:59.453Z,1.98
2023-11-25T05:15:01.769Z,1.70
2023-11-25T05:18:04.200Z,1.63
2023-11-25T05:21:09.067Z,1.13
2023-11-25T05:24:11.591Z,1.92
2023-11-25T05:27:13.821Z,3.13
2023-11-25T05:30:16.467Z,0.95
2023-11-25T05:33:18.708Z,3.45
2023-11-25T05:36:20.952Z,0.40
2023-11-25T05:39:23.345Z,4.63
2023-11-25T05:42:28.147Z,5.03
2023-11-25T05:45:32.034Z,4.55
2023-11-25T05:48:34.138Z,2.00
2023-11-25T05:51:39.738Z,4.40
2023-11-25T05:54:44.116Z,3.13
2023-11-25T05:57:47.151Z,3.60
2023-11-25T06:00:49.926Z,3.25
2023-11-25T06:03:53.439Z,4.13
2023-11-25T06:06:55.801Z,3.35
2023-11-25T06:09:58.047Z,1.60
2023-11-25T06:13:00.478Z,2.20
2023-11-25T06:16:02.751Z,1.20
2023-11-25T06:19:06.403Z,2.57
2023-11-25T06:22:08.599Z,4.70
2023-11-25T06:25:10.593Z,1.58
2023-11-25T06:28:15.933Z,1.73
2023-11-25T06:31:18.344Z,2.65
2023-11-25T06:34:20.633Z,1.90
2023-11-25T06:37:23.308Z,2.45
2023-11-25T06:40:25.697Z,1.13
2023-11-25T06:43:28.545Z,3.42
2023-11-25T06:46:32.008Z,2.63
2023-11-25T06:49:36.384Z,1.73
2023-11-25T06:52:38.519Z,5.68
2023-11-25T06:55:43.520Z,3.33
2023-11-25T06:58:47.016Z,6.43
2023-11-25T07:01:49.458Z,3.22
2023-11-25T07:04:51.661Z,0.73
2023-11-25T07:07:54.031Z,1.55
2023-11-25T07:10:56.255Z,8.10
2023-11-25T07:13:58.626Z,5.60
2023-11-25T07:17:01.033Z,5.90
2023-11-25T07:20:04.292Z,4.03
2023-11-25T07:23:08.239Z,4.03
2023-11-25T07:26:13.851Z,1.88
2023-11-25T07:29:16.183Z,4.50
2023-11-25T07:32:18.522Z,3.17
2023-11-25T07:35:21.071Z,3.55
2023-11-25T07:38:23.034Z,4.00
2023-11-25T07:41:26.000Z,6.20
2023-11-25T07:44:34.347Z,2.47
2023-11-25T07:47:37.621Z,3.95
2023-11-25T07:50:45.436Z,1.33
2023-11-25T07:53:48.641Z,1.40
2023-11-25T07:56:50.903Z,0.93
2023-11-25T07:59:53.246Z,2.13
2023-11-25T08:02:57.003Z,3.50
2023-11-25T08:06:00.071Z,2.45
2023-11-25T08:09:03.551Z,2.38
2023-11-25T08:12:06.393Z,2.33
2023-11-25T08:15:10.692Z,0.55
2023-11-25T08:18:16.810Z,8.00
2023-11-25T08:21:19.783Z,2.07
2023-11-25T08:24:22.446Z,1.70
2023-11-25T08:27:24.824Z,2.78
2023-11-25T08:30:27.529Z,2.50
2023-11-25T08:33:29.614Z,2.55
2023-11-25T08:36:31.632Z,5.65
2023-11-25T08:39:34.288Z,6.93
2023-11-25T08:42:36.542Z,3.72
2023-11-25T08:45:39.453Z,7.45
2023-11-25T08:48:44.567Z,1.40
2023-11-25T08:51:51.987Z,2.10
2023-11-25T08:54:54.557Z,3.13
2023-11-25T08:57:56.699Z,0.50
2023-11-25T09:01:00.298Z,6.43
2023-11-25T09:04:02.395Z,1.13
2023-11-25T09:07:04.855Z,0.47
2023-11-25T09:10:08.724Z,2.55
2023-11-25T09:13:11.985Z,1.70
2023-11-25T09:16:14.960Z,1.50
2023-11-25T09:19:17.482Z,3.47
2023-11-25T09:22:19.868Z,3.23
2023-11-25T09:25:22.251Z,5.65
2023-11-25T09:28:25.806Z,5.25
2023-11-25T09:31:29.195Z,2.40
2023-11-25T09:34:32.092Z,2.00
2023-11-25T09:37:35.049Z,0.80
2023-11-25T09:40:37.627Z,5.65
2023-11-25T09:43:40.328Z,0.73
2023-11-25T09:46:46.467Z,2.28
2023-11-25T09:49:48.643Z,1.85
2023-11-25T09:52:53.476Z,2.40
2023-11-25T09:56:03.411Z,0.55
2023-11-25T09:59:06.725Z,2.20
2023-11-25T10:02:10.700Z,1.20
2023-11-25T10:05:15.472Z,0.88
2023-11-25T10:08:17.871Z,0.93
2023-11-25T10:11:23.229Z,0.68
2023-11-25T10:14:28.917Z,2.00
2023-11-25T10:17:31.318Z,0.60
2023-11-25T10:20:42.416Z,0.32
2023-11-25T10:23:44.406Z,2.00
2023-11-25T10:26:47.389Z,0.82
2023-11-25T10:29:50.920Z,1.88
2023-11-25T10:32:55.941Z,4.37
2023-11-25T10:35:59.434Z,6.57
2023-11-25T10:39:04.630Z,1.98
2023-11-25T10:42:08.703Z,0.95
2023-11-25T10:45:18.021Z,5.20
2023-11-25T10:48:20.921Z,2.42
2023-11-25T10:51:23.017Z,2.63
2023-11-25T10:54:27.835Z,1.17
2023-11-25T10:57:32.916Z,1.00
2023-11-25T11:00:36.098Z,0.90
2023-11-25T11:03:54.456Z,2.00
2023-11-25T11:07:01.768Z,1.00
2023-11-25T11:10:08.532Z,1.00
2023-11-25T11:13:13.726Z,0.22
2023-11-25T11:16:28.867Z,1.08
2023-11-25T11:19:43.725Z,0.40
2023-11-25T11:22:46.533Z,1.33
2023-11-25T11:26:31.420Z,0.70
2023-11-25T11:29:43.254Z,1.98
2023-11-25T11:32:46.900Z,1.88
2023-11-25T11:35:50.631Z,0.57
2023-11-25T11:38:54.111Z,0.68
2023-11-25T11:41:56.259Z,2.03
2023-11-25T11:45:17.041Z,6.72
2023-11-25T11:48:20.278Z,2.30
2023-11-25T11:51:24.562Z,1.00
2023-11-25T11:54:28.616Z,2.88
2023-11-25T11:57:30.864Z,0.53
2023-11-25T12:01:06.620Z,1.45
2023-11-25T12:04:09.717Z,1.48
2023-11-25T12:07:12.185Z,2.93
2023-11-25T12:10:14.599Z,0.98
2023-11-25T12:13:26.231Z,0.73
2023-11-25T12:16:28.925Z,0.85
2023-11-25T12:19:31.231Z,1.48
2023-11-25T12:22:33.300Z,5.60
2023-11-25T12:25:36.695Z,1.23
2023-11-25T12:28:44.120Z,1.20
2023-11-25T12:31:46.400Z,1.83
2023-11-25T12:34:48.941Z,1.63
2023-11-25T12:38:04.541Z,2.17
2023-11-25T12:41:16.325Z,8.68
2023-11-25T12:44:18.560Z,1.60
2023-11-25T12:47:20.662Z,5.50
2023-11-25T12:50:23.904Z,4.05
2023-11-25T12:53:26.031Z,5.40
2023-11-25T12:56:28.493Z,3.40
2023-11-25T12:59:31.183Z,4.50
2023-11-25T13:02:34.960Z,5.85
2023-11-25T13:05:37.432Z,8.88
2023-11-25T13:08:46.344Z,10.80
2023-11-25T13:11:48.823Z,5.78
2023-11-25T13:14:51.405Z,3.03
2023-11-25T13:17:53.762Z,2.17
2023-11-25T13:20:57.017Z,2.75
2023-11-25T13:23:59.088Z,4.18
2023-11-25T13:27:01.114Z,3.92
2023-11-25T13:30:03.948Z,3.47
2023-11-25T13:33:06.434Z,2.67
2023-11-25T13:36:08.870Z,5.57
2023-11-25T13:39:15.564Z,2.70
2023-11-25T13:42:17.608Z,3.08
2023-11-25T13:45:19.692Z,13.02
2023-11-25T13:48:21.749Z,1.58
2023-11-25T13:51:24.084Z,4.20
2023-11-25T13:54:26.172Z,1.77
2023-11-25T13:57:28.205Z,1.65
2023-11-25T14:00:30.496Z,0.97
2023-11-25T14:03:33.221Z,2.40
2023-11-25T14:06:35.297Z,3.55
2023-11-25T14:09:38.003Z,2.90
2023-11-25T14:12:40.325Z,3.95
2023-11-25T14:15:42.717Z,3.45
2023-11-25T14:18:45.056Z,3.13
2023-11-25T14:21:47.154Z,2.58
2023-11-25T14:24:49.265Z,3.05
2023-11-25T14:27:51.511Z,2.50
2023-11-25T14:30:53.897Z,3.27
2023-11-25T14:33:56.163Z,3.03
2023-11-25T14:36:58.190Z,8.05
2023-11-25T14:40:01.630Z,6.70
2023-11-25T14:43:07.940Z,3.55
2023-11-25T14:46:12.796Z,5.88
2023-11-25T14:49:15.357Z,1.67
2023-11-25T14:52:17.659Z,5.03
2023-11-25T14:55:20.410Z,2.45
2023-11-25T14:58:23.085Z,2.15
2023-11-25T15:01:25.420Z,4.50
2023-11-25T15:04:27.756Z,5.07
2023-11-25T15:07:30.413Z,2.70
2023-11-25T15:10:32.459Z,2.23
2023-11-25T15:13:34.845Z,3.22
2023-11-25T15:16:37.492Z,3.00
2023-11-25T15:19:42.309Z,0.70
2023-11-25T15:22:44.568Z,1.05
2023-11-25T15:25:48.211Z,1.75
2023-11-25T15:28:52.699Z,1.92
2023-11-25T15:31:55.894Z,2.27
2023-11-25T15:34:58.293Z,1.80
2023-11-25T15:38:00.331Z,4.18
2023-11-25T15:41:04.004Z,4.23
2023-11-25T15:44:07.216Z,3.13
2023-11-25T15:47:10.039Z,3.55
2023-11-25T15:50:12.539Z,2.13
2023-11-25T15:53:14.788Z,5.35
2023-11-25T15:56:18.806Z,1.00
2023-11-25T15:59:25.196Z,3.78
2023-11-25T16:02:27.410Z,4.90
2023-11-25T16:05:29.565Z,3.42
2023-11-25T16:08:32.100Z,3.67
2023-11-25T16:11:35.192Z,1.87
2023-11-25T16:14:37.839Z,1.27
2023-11-25T16:17:41.187Z,1.20
2023-11-25T16:20:45.119Z,2.45
2023-11-25T16:23:47.479Z,4.30
2023-11-25T16:26:49.610Z,5.60
2023-11-25T16:29:54.065Z,3.83
2023-11-25T16:33:03.912Z,3.80
2023-11-25T16:36:08.417Z,1.80
2023-11-25T16:39:11.507Z,2.20
2023-11-25T16:42:13.672Z,2.03
2023-11-25T16:45:17.274Z,1.08
2023-11-25T16:48:19.332Z,1.88
2023-11-25T16:51:21.384Z,3.58
2023-11-25T16:54:24.292Z,4.43
2023-11-25T16:57:26.637Z,1.08
2023-11-25T17:00:29.713Z,3.78
2023-11-25T17:03:33.612Z,2.13
2023-11-25T17:06:37.010Z,1.60
2023-11-25T17:09:39.893Z,3.38
2023-11-25T17:12:42.322Z,4.43
2023-11-25T17:15:45.590Z,2.65
2023-11-25T17:18:48.474Z,11.00
2023-11-25T17:21:51.025Z,2.85
2023-11-25T17:24:53.012Z,3.35
2023-11-25T17:27:55.675Z,14.68
2023-11-25T17:30:58.097Z,1.10
2023-11-25T17:34:00.328Z,6.80
2023-11-25T17:37:02.749Z,6.95
2023-11-25T17:40:06.498Z,5.72
2023-11-25T17:43:08.582Z,7.80
2023-11-25T17:46:11.100Z,3.83
2023-11-25T17:49:13.258Z,7.53
2023-11-25T17:52:15.604Z,8.10
2023-11-25T17:55:17.954Z,6.57
2023-11-25T17:58:20.377Z,6.50
2023-11-25T18:01:22.434Z,4.32
2023-11-25T18:04:24.727Z,8.23
2023-11-25T18:07:28.672Z,5.35
2023-11-25T18:10:31.056Z,5.03
2023-11-25T18:13:34.728Z,4.53
2023-11-25T18:16:38.540Z,6.30
2023-11-25T18:19:40.658Z,5.10
2023-11-25T18:22:42.780Z,5.65
2023-11-25T18:25:44.955Z,9.05
2023-11-25T18:28:47.313Z,8.45
2023-11-25T18:31:49.330Z,8.75
2023-11-25T18:34:51.765Z,15.13
2023-11-25T18:37:53.957Z,13.00
2023-11-25T18:40:56.845Z,11.13
2023-11-25T18:43:59.088Z,10.97
2023-11-25T18:47:01.234Z,6.38
2023-11-25T18:50:04.670Z,7.35
2023-11-25T18:53:06.988Z,8.60
2023-11-25T18:56:09.419Z,8.95
2023-11-25T18:59:11.826Z,8.27
2023-11-25T19:02:15.778Z,6.00
2023-11-25T19:05:18.799Z,12.33
2023-11-25T19:08:21.455Z,7.45
2023-11-25T19:11:23.955Z,8.85
2023-11-25T19:14:26.084Z,15.47
2023-11-25T19:17:28.377Z,4.53
2023-11-25T19:20:30.458Z,4.70
2023-11-25T19:23:32.703Z,3.78
2023-11-25T19:26:34.725Z,7.15
2023-11-25T19:29:42.727Z,10.27
2023-11-25T19:32:45.339Z,22.77
2023-11-25T19:35:47.504Z,12.13
2023-11-25T19:38:49.782Z,7.15
2023-11-25T19:41:51.826Z,7.35
2023-11-25T19:44:54.151Z,5.73
2023-11-25T19:47:56.329Z,7.75
2023-11-25T19:50:58.891Z,9.52
2023-11-25T19:54:01.773Z,11.40
2023-11-25T19:57:04.172Z,6.07
2023-11-25T20:00:10.918Z,9.38
2023-11-25T20:03:16.726Z,7.93
2023-11-25T20:06:18.964Z,5.13
2023-11-25T20:09:21.031Z,15.60
2023-11-25T20:12:23.490Z,3.80
2023-11-25T20:15:25.807Z,4.70
2023-11-25T20:18:28.140Z,6.43
2023-11-25T20:21:30.468Z,7.80
2023-11-25T20:24:32.773Z,7.20
2023-11-25T20:27:35.687Z,10.13
2023-11-25T20:30:37.981Z,4.88
2023-11-25T20:33:40.997Z,7.05
2023-11-25T20:36:43.152Z,8.83
2023-11-25T20:39:45.394Z,5.18
2023-11-25T20:42:47.684Z,3.50
2023-11-25T20:45:50.058Z,8.73
2023-11-25T20:48:52.086Z,8.88
2023-11-25T20:51:54.155Z,5.53
2023-11-25T20:54:56.262Z,7.30
2023-11-25T20:57:58.397Z,3.97
2023-11-25T21:01:07.542Z,5.78
2023-11-25T21:04:10.204Z,6.70
2023-11-25T21:07:12.380Z,2.47
2023-11-25T21:10:14.778Z,8.48
2023-11-25T21:13:16.790Z,5.75
2023-11-25T21:16:19.177Z,6.37
2023-11-25T21:19:21.325Z,10.07
2023-11-25T21:22:24.262Z,9.70
2023-11-25T21:25:26.424Z,12.48
2023-11-25T21:28:28.466Z,8.35
2023-11-25T21:31:30.766Z,10.23
2023-11-25T21:34:33.058Z,7.60
2023-11-25T21:37:35.335Z,11.10
2023-11-25T21:40:37.657Z,5.72
2023-11-25T21:43:40.316Z,5.82
2023-11-25T21:46:42.414Z,5.93
2023-11-25T21:49:44.903Z,3.67
2023-11-25T21:52:47.117Z,5.85
2023-11-25T21:55:49.270Z,9.25
2023-11-25T21:58:51.669Z,10.52
2023-11-25T22:01:53.991Z,12.90
2023-11-25T22:04:56.079Z,6.63
2023-11-25T22:07:58.335Z,2.07
2023-11-25T22:11:00.700Z,8.80
2023-11-25T22:14:03.142Z,16.15
2023-11-25T22:17:05.556Z,12.33
2023-11-25T22:20:09.225Z,16.25
2023-11-25T22:23:11.380Z,9.65
2023-11-25T22:26:17.018Z,4.68
2023-11-25T22:29:19.150Z,8.18
2023-11-25T22:32:21.832Z,13.07
2023-11-25T22:35:24.553Z,13.60
2023-11-25T22:38:27.745Z,11.90
2023-11-25T22:41:30.002Z,24.58
2023-11-25T22:44:32.405Z,26.80
2023-11-25T22:47:34.753Z,13.50
2023-11-25T22:50:37.066Z,25.85
2023-11-25T22:53:39.360Z,16.83
2023-11-25T22:56:43.521Z,13.85
2023-11-25T22:59:55.333Z,10.80
2023-11-25T23:02:57.991Z,5.35
2023-11-25T23:06:00.870Z,4.60
2023-11-25T23:09:07.262Z,4.43
2023-11-25T23:12:10.655Z,3.67
2023-11-25T23:15:12.759Z,4.25
2023-11-25T23:18:15.019Z,4.23
2023-11-25T23:21:18.252Z,4.57
2023-11-25T23:24:20.587Z,8.57
2023-11-25T23:27:22.870Z,4.47
2023-11-25T23:30:25.189Z,6.00
2023-11-25T23:33:27.481Z,4.88
2023-11-25T23:36:29.841Z,4.95
2023-11-25T23:39:33.360Z,5.20
2023-11-25T23:42:35.614Z,6.55
2023-11-25T23:45:37.869Z,4.43
2023-11-25T23:48:40.006Z,1.83
2023-11-25T23:51:42.014Z,2.67
2023-11-25T23:54:44.351Z,4.28
2023-11-25T23:57:46.484Z,2.25
